sensor_id;sensor_type;location;lat;lon;timestamp;pressure;altitude;pressure_sealevel;temperature;humidity
10852;BME280;5479;52.046;6.314;2023-05-09T00:02:01;101671.66;;;16.62;100.00
10852;BME280;5479;52.046;6.314;2023-05-09T00:04:29;101668.44;;;16.57;100.00
10852;BME280;5479;52.046;6.314;2023-05-09T00:06:58;101668.22;;;16.60;100.00
10852;BME280;5479;52.046;6.314;2023-05-09T00:09:27;101658.13;;;16.51;100.00
10852;BME280;5479;52.046;6.314;2023-05-09T00:11:56;101664.25;;;16.53;100.00
10852;BME280;5479;52.046;6.314;2023-05-09T00:14:24;101654.19;;;16.44;100.00
10852;BME280;5479;52.046;6.314;2023-05-09T00:16:55;101660.50;;;16.43;100.00
10852;BME280;5479;52.046;6.314;2023-05-09T00:19:26;101657.06;;;16.41;100.00
10852;BME280;5479;52.046;6.314;2023-05-09T00:21:57;101649.69;;;16.32;100.00
10852;BME280;5479;52.046;6.314;2023-05-09T00:24:27;101650.66;;;16.31;100.00
10852;BME280;5479;52.046;6.314;2023-05-09T00:26:56;101647.88;;;16.33;100.00
10852;BME280;5479;52.046;6.314;2023-05-09T00:29:24;101634.31;;;16.23;100.00
10852;BME280;5479;52.046;6.314;2023-05-09T00:31:55;101628.44;;;16.18;100.00
10852;BME280;5479;52.046;6.314;2023-05-09T00:34:24;101627.13;;;16.11;100.00
10852;BME280;5479;52.046;6.314;2023-05-09T00:36:52;101617.63;;;16.07;100.00
10852;BME280;5479;52.046;6.314;2023-05-09T00:39:20;101616.88;;;16.05;100.00
10852;BME280;5479;52.046;6.314;2023-05-09T00:41:54;101610.03;;;16.01;100.00
10852;BME280;5479;52.046;6.314;2023-05-09T00:44:23;101603.81;;;16.00;100.00
10852;BME280;5479;52.046;6.314;2023-05-09T00:46:53;101599.75;;;15.95;100.00
10852;BME280;5479;52.046;6.314;2023-05-09T00:49:24;101598.06;;;15.94;100.00
10852;BME280;5479;52.046;6.314;2023-05-09T00:51:53;101595.41;;;15.94;100.00
10852;BME280;5479;52.046;6.314;2023-05-09T00:54:23;101591.00;;;15.93;100.00
10852;BME280;5479;52.046;6.314;2023-05-09T00:56:53;101593.78;;;15.91;100.00
10852;BME280;5479;52.046;6.314;2023-05-09T00:59:21;101591.94;;;15.92;100.00
10852;BME280;5479;52.046;6.314;2023-05-09T01:01:49;101590.78;;;15.96;100.00
10852;BME280;5479;52.046;6.314;2023-05-09T01:04:16;101598.59;;;15.86;100.00
10852;BME280;5479;52.046;6.314;2023-05-09T01:06:54;101597.75;;;15.86;100.00
10852;BME280;5479;52.046;6.314;2023-05-09T01:09:31;101594.53;;;15.81;100.00
10852;BME280;5479;52.046;6.314;2023-05-09T01:12:15;101591.53;;;15.73;100.00
10852;BME280;5479;52.046;6.314;2023-05-09T01:14:52;101585.41;;;15.70;100.00
10852;BME280;5479;52.046;6.314;2023-05-09T01:17:29;101579.53;;;15.65;100.00
10852;BME280;5479;52.046;6.314;2023-05-09T01:20:02;101580.50;;;15.64;100.00
10852;BME280;5479;52.046;6.314;2023-05-09T01:22:40;101573.44;;;15.63;100.00
10852;BME280;5479;52.046;6.314;2023-05-09T01:25:37;101573.25;;;15.66;100.00
10852;BME280;5479;52.046;6.314;2023-05-09T01:31:11;101562.03;;;15.61;100.00
10852;BME280;5479;52.046;6.314;2023-05-09T01:33:43;101560.44;;;15.59;100.00
10852;BME280;5479;52.046;6.314;2023-05-09T01:36:18;101561.28;;;15.59;100.00
10852;BME280;5479;52.046;6.314;2023-05-09T01:38:49;101566.16;;;15.53;100.00
10852;BME280;5479;52.046;6.314;2023-05-09T01:41:19;101561.03;;;15.50;100.00
10852;BME280;5479;52.046;6.314;2023-05-09T01:43:51;101559.34;;;15.49;100.00
10852;BME280;5479;52.046;6.314;2023-05-09T01:46:27;101570.22;;;15.46;100.00
10852;BME280;5479;52.046;6.314;2023-05-09T01:48:56;101566.88;;;15.42;100.00
10852;BME280;5479;52.046;6.314;2023-05-09T01:51:27;101558.66;;;15.45;100.00
10852;BME280;5479;52.046;6.314;2023-05-09T01:53:59;101556.94;;;15.44;100.00
10852;BME280;5479;52.046;6.314;2023-05-09T01:56:30;101555.91;;;15.47;100.00
10852;BME280;5479;52.046;6.314;2023-05-09T01:58:59;101549.69;;;15.46;100.00
10852;BME280;5479;52.046;6.314;2023-05-09T02:01:31;101549.69;;;15.46;100.00
10852;BME280;5479;52.046;6.314;2023-05-09T02:04:01;101549.50;;;15.49;100.00
10852;BME280;5479;52.046;6.314;2023-05-09T02:06:30;101541.50;;;15.49;100.00
10852;BME280;5479;52.046;6.314;2023-05-09T02:09:00;101551.00;;;15.53;100.00
10852;BME280;5479;52.046;6.314;2023-05-09T02:11:28;101549.94;;;15.56;100.00
10852;BME280;5479;52.046;6.314;2023-05-09T02:13:58;101549.94;;;15.56;100.00
10852;BME280;5479;52.046;6.314;2023-05-09T02:16:32;101548.69;;;15.61;100.00
10852;BME280;5479;52.046;6.314;2023-05-09T02:19:01;101545.59;;;15.67;100.00
10852;BME280;5479;52.046;6.314;2023-05-09T02:21:30;101541.94;;;15.68;100.00
10852;BME280;5479;52.046;6.314;2023-05-09T02:23:58;101549.75;;;15.72;100.00
10852;BME280;5479;52.046;6.314;2023-05-09T02:26:27;101547.63;;;15.77;100.00
10852;BME280;5479;52.046;6.314;2023-05-09T02:28:55;101542.06;;;15.80;100.00
10852;BME280;5479;52.046;6.314;2023-05-09T02:31:26;101550.63;;;15.85;100.00
10852;BME280;5479;52.046;6.314;2023-05-09T02:33:57;101554.47;;;15.81;100.00
10852;BME280;5479;52.046;6.314;2023-05-09T02:36:28;101549.97;;;15.81;100.00
10852;BME280;5479;52.046;6.314;2023-05-09T02:38:57;101542.59;;;15.85;100.00
10852;BME280;5479;52.046;6.314;2023-05-09T02:41:29;101536.09;;;15.89;100.00
10852;BME280;5479;52.046;6.314;2023-05-09T02:43:58;101539.50;;;15.91;100.00
10852;BME280;5479;52.046;6.314;2023-05-09T02:46:28;101539.50;;;15.91;100.00
10852;BME280;5479;52.046;6.314;2023-05-09T02:48:58;101531.06;;;15.97;100.00
10852;BME280;5479;52.046;6.314;2023-05-09T02:51:26;101531.06;;;15.97;100.00
10852;BME280;5479;52.046;6.314;2023-05-09T02:53:59;101535.84;;;15.92;100.00
10852;BME280;5479;52.046;6.314;2023-05-09T02:56:27;101538.66;;;15.90;100.00
10852;BME280;5479;52.046;6.314;2023-05-09T02:58:55;101530.44;;;15.93;100.00
10852;BME280;5479;52.046;6.314;2023-05-09T03:01:23;101529.56;;;15.93;100.00
10852;BME280;5479;52.046;6.314;2023-05-09T03:03:51;101518.88;;;15.93;100.00
10852;BME280;5479;52.046;6.314;2023-05-09T03:06:21;101519.22;;;15.88;100.00
10852;BME280;5479;52.046;6.314;2023-05-09T03:08:49;101513.09;;;15.74;100.00
10852;BME280;5479;52.046;6.314;2023-05-09T03:11:17;101508.50;;;15.63;100.00
10852;BME280;5479;52.046;6.314;2023-05-09T03:13:45;101509.56;;;15.73;100.00
10852;BME280;5479;52.046;6.314;2023-05-09T03:16:17;101509.16;;;15.79;100.00
10852;BME280;5479;52.046;6.314;2023-05-09T03:18:48;101506.59;;;15.78;100.00
10852;BME280;5479;52.046;6.314;2023-05-09T03:21:16;101494.94;;;15.66;100.00
10852;BME280;5479;52.046;6.314;2023-05-09T03:23:47;101489.28;;;15.70;100.00
10852;BME280;5479;52.046;6.314;2023-05-09T03:26:18;101492.28;;;15.66;100.00
10852;BME280;5479;52.046;6.314;2023-05-09T03:28:47;101496.47;;;15.70;100.00
10852;BME280;5479;52.046;6.314;2023-05-09T03:31:15;101498.06;;;15.73;100.00
10852;BME280;5479;52.046;6.314;2023-05-09T03:33:49;101500.75;;;15.73;100.00
10852;BME280;5479;52.046;6.314;2023-05-09T03:36:18;101500.75;;;15.73;100.00
10852;BME280;5479;52.046;6.314;2023-05-09T03:38:47;101492.06;;;15.69;100.00
10852;BME280;5479;52.046;6.314;2023-05-09T03:41:16;101482.69;;;15.63;100.00
10852;BME280;5479;52.046;6.314;2023-05-09T03:43:46;101485.47;;;15.75;100.00
10852;BME280;5479;52.046;6.314;2023-05-09T03:46:14;101482.25;;;15.69;100.00
10852;BME280;5479;52.046;6.314;2023-05-09T03:48:45;101471.38;;;15.73;100.00
10852;BME280;5479;52.046;6.314;2023-05-09T03:51:27;101464.31;;;15.59;100.00
10852;BME280;5479;52.046;6.314;2023-05-09T03:53:56;101462.41;;;15.48;100.00
10852;BME280;5479;52.046;6.314;2023-05-09T03:56:27;101463.66;;;15.55;100.00
10852;BME280;5479;52.046;6.314;2023-05-09T03:58:55;101471.03;;;15.52;100.00
10852;BME280;5479;52.046;6.314;2023-05-09T04:01:27;101461.31;;;15.63;100.00
10852;BME280;5479;52.046;6.314;2023-05-09T04:03:56;101461.19;;;15.52;100.00
10852;BME280;5479;52.046;6.314;2023-05-09T04:06:27;101468.59;;;15.61;100.00
10852;BME280;5479;52.046;6.314;2023-05-09T04:09:02;101471.03;;;15.64;100.00
10852;BME280;5479;52.046;6.314;2023-05-09T04:11:32;101467.94;;;15.70;100.00
10852;BME280;5479;52.046;6.314;2023-05-09T04:14:00;101457.91;;;15.74;100.00
10852;BME280;5479;52.046;6.314;2023-05-09T04:16:32;101458.09;;;15.71;100.00
10852;BME280;5479;52.046;6.314;2023-05-09T04:19:00;101460.91;;;15.69;100.00
10852;BME280;5479;52.046;6.314;2023-05-09T04:21:29;101461.50;;;15.73;100.00
10852;BME280;5479;52.046;6.314;2023-05-09T04:23:57;101460.91;;;15.69;100.00
10852;BME280;5479;52.046;6.314;2023-05-09T04:26:26;101455.22;;;15.74;100.00
10852;BME280;5479;52.046;6.314;2023-05-09T04:28:57;101448.59;;;15.80;100.00
10852;BME280;5479;52.046;6.314;2023-05-09T04:31:25;101455.22;;;15.74;100.00
10852;BME280;5479;52.046;6.314;2023-05-09T04:33:53;101446.34;;;15.74;100.00
10852;BME280;5479;52.046;6.314;2023-05-09T04:36:24;101446.56;;;15.83;100.00
10852;BME280;5479;52.046;6.314;2023-05-09T04:38:53;101448.47;;;15.81;100.00
10852;BME280;5479;52.046;6.314;2023-05-09T04:41:21;101454.69;;;15.82;100.00
10852;BME280;5479;52.046;6.314;2023-05-09T04:43:51;101447.84;;;15.78;100.00
10852;BME280;5479;52.046;6.314;2023-05-09T04:46:20;101447.84;;;15.90;100.00
10852;BME280;5479;52.046;6.314;2023-05-09T04:48:48;101448.91;;;15.88;100.00
10852;BME280;5479;52.046;6.314;2023-05-09T04:51:17;101449.56;;;15.79;100.00
10852;BME280;5479;52.046;6.314;2023-05-09T04:53:45;101449.34;;;15.82;100.00
10852;BME280;5479;52.046;6.314;2023-05-09T04:56:14;101450.84;;;15.86;100.00
10852;BME280;5479;52.046;6.314;2023-05-09T04:58:42;101453.00;;;15.81;100.00
10852;BME280;5479;52.046;6.314;2023-05-09T05:01:10;101443.25;;;15.80;100.00
10852;BME280;5479;52.046;6.314;2023-05-09T05:03:40;101446.78;;;15.80;100.00
10852;BME280;5479;52.046;6.314;2023-05-09T05:06:08;101442.84;;;15.86;100.00
10852;BME280;5479;52.046;6.314;2023-05-09T05:08:47;101438.88;;;15.79;100.00
10852;BME280;5479;52.046;6.314;2023-05-09T05:11:15;101444.22;;;15.79;100.00
10852;BME280;5479;52.046;6.314;2023-05-09T05:13:45;101431.16;;;15.87;100.00
10852;BME280;5479;52.046;6.314;2023-05-09T05:16:16;101434.47;;;15.90;100.00
10852;BME280;5479;52.046;6.314;2023-05-09T05:18:44;101438.53;;;15.96;100.00
10852;BME280;5479;52.046;6.314;2023-05-09T05:21:12;101433.75;;;15.88;100.00
10852;BME280;5479;52.046;6.314;2023-05-09T05:23:41;101423.06;;;15.88;100.00
10852;BME280;5479;52.046;6.314;2023-05-09T05:26:14;101428.44;;;15.76;100.00
10852;BME280;5479;52.046;6.314;2023-05-09T05:28:42;101433.53;;;15.79;100.00
10852;BME280;5479;52.046;6.314;2023-05-09T05:31:10;101426.91;;;15.84;100.00
10852;BME280;5479;52.046;6.314;2023-05-09T05:33:39;101419.19;;;15.92;100.00
10852;BME280;5479;52.046;6.314;2023-05-09T05:36:09;101414.91;;;15.90;100.00
10852;BME280;5479;52.046;6.314;2023-05-09T05:38:37;101413.75;;;15.94;100.00
10852;BME280;5479;52.046;6.314;2023-05-09T05:41:06;101410.63;;;16.00;100.00
10852;BME280;5479;52.046;6.314;2023-05-09T05:43:41;101408.63;;;15.91;100.00
10852;BME280;5479;52.046;6.314;2023-05-09T05:46:09;101403.66;;;16.10;100.00
10852;BME280;5479;52.046;6.314;2023-05-09T05:48:39;101402.94;;;15.95;100.00
10852;BME280;5479;52.046;6.314;2023-05-09T05:51:06;101407.66;;;15.92;100.00
10852;BME280;5479;52.046;6.314;2023-05-09T05:53:34;101403.16;;;16.05;100.00
10852;BME280;5479;52.046;6.314;2023-05-09T05:56:03;101393.31;;;16.05;100.00
10852;BME280;5479;52.046;6.314;2023-05-09T05:58:31;101388.50;;;16.10;100.00
10852;BME280;5479;52.046;6.314;2023-05-09T06:00:59;101379.41;;;16.13;100.00
10852;BME280;5479;52.046;6.314;2023-05-09T06:03:27;101375.59;;;16.04;100.00
10852;BME280;5479;52.046;6.314;2023-05-09T06:05:57;101381.81;;;16.16;100.00
10852;BME280;5479;52.046;6.314;2023-05-09T06:08:24;101386.00;;;16.20;100.00
10852;BME280;5479;52.046;6.314;2023-05-09T06:10:59;101387.06;;;16.17;100.00
10852;BME280;5479;52.046;6.314;2023-05-09T06:13:26;101378.50;;;16.25;100.00
10852;BME280;5479;52.046;6.314;2023-05-09T06:15:56;101376.97;;;16.10;100.00
10852;BME280;5479;52.046;6.314;2023-05-09T06:18:25;101366.59;;;16.05;100.00
10852;BME280;5479;52.046;6.314;2023-05-09T06:20:54;101362.69;;;16.22;100.00
10852;BME280;5479;52.046;6.314;2023-05-09T06:23:23;101362.47;;;16.25;100.00
10852;BME280;5479;52.046;6.314;2023-05-09T06:25:51;101355.59;;;16.34;100.00
10852;BME280;5479;52.046;6.314;2023-05-09T06:28:30;101362.69;;;16.22;100.00
10852;BME280;5479;52.046;6.314;2023-05-09T06:30:59;101350.91;;;16.24;100.00
10852;BME280;5479;52.046;6.314;2023-05-09T06:33:27;101339.91;;;16.29;100.00
10852;BME280;5479;52.046;6.314;2023-05-09T06:35:55;101336.16;;;16.32;100.00
10852;BME280;5479;52.046;6.314;2023-05-09T06:38:27;101339.41;;;16.35;100.00
10852;BME280;5479;52.046;6.314;2023-05-09T06:40:56;101332.53;;;16.67;100.00
10852;BME280;5479;52.046;6.314;2023-05-09T06:43:24;101328.84;;;16.92;100.00
10852;BME280;5479;52.046;6.314;2023-05-09T06:45:52;101337.03;;;17.24;100.00
10852;BME280;5479;52.046;6.314;2023-05-09T06:48:20;101335.81;;;17.50;100.00
10852;BME280;5479;52.046;6.314;2023-05-09T06:50:49;101332.41;;;17.48;100.00
10852;BME280;5479;52.046;6.314;2023-05-09T06:53:17;101325.22;;;17.26;100.00
10852;BME280;5479;52.046;6.314;2023-05-09T06:55:47;101326.56;;;17.32;100.00
10852;BME280;5479;52.046;6.314;2023-05-09T06:58:15;101321.69;;;17.37;100.00
10852;BME280;5479;52.046;6.314;2023-05-09T07:00:43;101319.88;;;17.48;100.00
10852;BME280;5479;52.046;6.314;2023-05-09T07:03:11;101319.53;;;17.53;100.00
10852;BME280;5479;52.046;6.314;2023-05-09T07:05:39;101323.06;;;17.76;100.00
10852;BME280;5479;52.046;6.314;2023-05-09T07:08:07;101311.44;;;17.97;100.00
10852;BME280;5479;52.046;6.314;2023-05-09T07:10:42;101308.63;;;17.99;100.00
10852;BME280;5479;52.046;6.314;2023-05-09T07:13:11;101305.88;;;17.89;100.00
10852;BME280;5479;52.046;6.314;2023-05-09T07:15:39;101300.06;;;18.16;100.00
10852;BME280;5479;52.046;6.314;2023-05-09T07:18:07;101297.50;;;18.15;100.00
10852;BME280;5479;52.046;6.314;2023-05-09T07:20:35;101296.59;;;17.93;100.00
10852;BME280;5479;52.046;6.314;2023-05-09T07:23:03;101295.00;;;17.91;100.00
10852;BME280;5479;52.046;6.314;2023-05-09T07:25:32;101290.25;;;17.94;100.00
10852;BME280;5479;52.046;6.314;2023-05-09T07:28:00;101290.66;;;17.79;100.00
10852;BME280;5479;52.046;6.314;2023-05-09T07:30:29;101279.31;;;17.97;100.00
10852;BME280;5479;52.046;6.314;2023-05-09T07:32:58;101282.69;;;17.99;100.00
10852;BME280;5479;52.046;6.314;2023-05-09T07:35:26;101280.81;;;18.11;100.00
10852;BME280;5479;52.046;6.314;2023-05-09T07:37:57;101275.56;;;18.21;100.00
10852;BME280;5479;52.046;6.314;2023-05-09T07:40:27;101280.53;;;18.46;100.00
10852;BME280;5479;52.046;6.314;2023-05-09T07:42:55;101281.50;;;18.56;100.00
10852;BME280;5479;52.046;6.314;2023-05-09T07:45:24;101273.53;;;18.65;100.00
10852;BME280;5479;52.046;6.314;2023-05-09T07:47:53;101270.69;;;18.88;100.00
10852;BME280;5479;52.046;6.314;2023-05-09T07:50:21;101269.44;;;19.12;100.00
10852;BME280;5479;52.046;6.314;2023-05-09T07:52:49;101265.06;;;19.42;100.00
10852;BME280;5479;52.046;6.314;2023-05-09T07:55:18;101255.91;;;18.93;100.00
10852;BME280;5479;52.046;6.314;2023-05-09T07:57:46;101251.28;;;18.75;100.00
10852;BME280;5479;52.046;6.314;2023-05-09T08:00:17;101247.84;;;18.73;100.00
10852;BME280;5479;52.046;6.314;2023-05-09T08:02:49;101243.47;;;19.22;100.00
10852;BME280;5479;52.046;6.314;2023-05-09T08:05:18;101243.91;;;19.58;100.00
10852;BME280;5479;52.046;6.314;2023-05-09T08:07:49;101228.66;;;19.87;100.00
10852;BME280;5479;52.046;6.314;2023-05-09T08:10:17;101224.00;;;19.89;100.00
10852;BME280;5479;52.046;6.314;2023-05-09T08:12:47;101224.75;;;20.29;100.00
10852;BME280;5479;52.046;6.314;2023-05-09T08:15:15;101222.28;;;19.88;100.00
10852;BME280;5479;52.046;6.314;2023-05-09T08:17:43;101223.44;;;20.14;100.00
10852;BME280;5479;52.046;6.314;2023-05-09T08:20:12;101218.56;;;20.66;100.00
10852;BME280;5479;52.046;6.314;2023-05-09T08:22:43;101211.78;;;21.62;100.00
10852;BME280;5479;52.046;6.314;2023-05-09T08:25:13;101207.84;;;21.12;100.00
10852;BME280;5479;52.046;6.314;2023-05-09T08:27:44;101201.22;;;21.24;100.00
10852;BME280;5479;52.046;6.314;2023-05-09T08:30:14;101204.16;;;21.13;100.00
10852;BME280;5479;52.046;6.314;2023-05-09T08:32:44;101203.91;;;20.87;100.00
10852;BME280;5479;52.046;6.314;2023-05-09T08:35:13;101202.72;;;20.63;100.00
10852;BME280;5479;52.046;6.314;2023-05-09T08:37:42;101192.31;;;20.87;100.00
10852;BME280;5479;52.046;6.314;2023-05-09T08:40:11;101197.22;;;20.55;100.00
10852;BME280;5479;52.046;6.314;2023-05-09T08:42:42;101195.25;;;20.47;100.00
10852;BME280;5479;52.046;6.314;2023-05-09T08:45:15;101201.50;;;20.48;100.00
10852;BME280;5479;52.046;6.314;2023-05-09T08:47:43;101185.66;;;20.81;100.00
10852;BME280;5479;52.046;6.314;2023-05-09T08:50:12;101174.81;;;21.37;100.00
10852;BME280;5479;52.046;6.314;2023-05-09T08:52:43;101173.56;;;20.95;100.00
10852;BME280;5479;52.046;6.314;2023-05-09T08:55:13;101175.56;;;20.93;100.00
10852;BME280;5479;52.046;6.314;2023-05-09T08:57:41;101170.75;;;20.87;100.00
10852;BME280;5479;52.046;6.314;2023-05-09T09:00:11;101170.56;;;21.35;100.00
10852;BME280;5479;52.046;6.314;2023-05-09T09:02:40;101167.66;;;20.82;100.00
10852;BME280;5479;52.046;6.314;2023-05-09T09:05:09;101171.28;;;21.00;100.00
10852;BME280;5479;52.046;6.314;2023-05-09T09:07:45;101166.31;;;21.32;100.00
10852;BME280;5479;52.046;6.314;2023-05-09T09:10:13;101154.97;;;21.11;100.00
10852;BME280;5479;52.046;6.314;2023-05-09T09:12:53;101151.47;;;21.28;100.00
10852;BME280;5479;52.046;6.314;2023-05-09T09:15:26;101149.38;;;21.22;100.00
10852;BME280;5479;52.046;6.314;2023-05-09T09:18:19;101147.88;;;21.37;100.00
10852;BME280;5479;52.046;6.314;2023-05-09T09:20:52;101145.19;;;21.37;100.00
10852;BME280;5479;52.046;6.314;2023-05-09T09:23:25;101148.97;;;21.44;100.00
10852;BME280;5479;52.046;6.314;2023-05-09T09:25:58;101135.69;;;21.51;100.00
10852;BME280;5479;52.046;6.314;2023-05-09T09:28:27;101129.13;;;21.18;100.00
10852;BME280;5479;52.046;6.314;2023-05-09T09:30:56;101125.25;;;22.01;100.00
10852;BME280;5479;52.046;6.314;2023-05-09T09:33:25;101135.56;;;21.52;100.00
10852;BME280;5479;52.046;6.314;2023-05-09T09:35:54;101128.09;;;21.99;100.00
10852;BME280;5479;52.046;6.314;2023-05-09T09:38:24;101133.56;;;22.76;100.00
10852;BME280;5479;52.046;6.314;2023-05-09T09:40:53;101129.22;;;22.58;100.00
10852;BME280;5479;52.046;6.314;2023-05-09T09:43:31;101121.03;;;22.24;100.00
10852;BME280;5479;52.046;6.314;2023-05-09T09:46:00;101123.31;;;21.40;100.00
10852;BME280;5479;52.046;6.314;2023-05-09T09:48:31;101123.19;;;21.15;100.00
10852;BME280;5479;52.046;6.314;2023-05-09T09:51:04;101111.34;;;20.71;100.00
10852;BME280;5479;52.046;6.314;2023-05-09T09:53:39;101108.34;;;21.11;100.00
10852;BME280;5479;52.046;6.314;2023-05-09T09:56:08;101108.69;;;21.43;100.00
10852;BME280;5479;52.046;6.314;2023-05-09T09:58:36;101110.94;;;22.00;100.00
10852;BME280;5479;52.046;6.314;2023-05-09T10:01:05;101102.41;;;22.13;100.00
10852;BME280;5479;52.046;6.314;2023-05-09T10:03:34;101098.78;;;22.22;100.00
10852;BME280;5479;52.046;6.314;2023-05-09T10:06:03;101104.13;;;22.65;100.00
10852;BME280;5479;52.046;6.314;2023-05-09T10:08:35;101089.53;;;21.99;100.00
10852;BME280;5479;52.046;6.314;2023-05-09T10:11:06;101092.75;;;21.85;100.00
10852;BME280;5479;52.046;6.314;2023-05-09T10:13:40;101086.44;;;21.94;100.00
10852;BME280;5479;52.046;6.314;2023-05-09T10:16:14;101091.13;;;21.74;100.00
10852;BME280;5479;52.046;6.314;2023-05-09T10:18:43;101090.22;;;22.01;100.00
10852;BME280;5479;52.046;6.314;2023-05-09T10:21:13;101078.28;;;22.37;100.00
10852;BME280;5479;52.046;6.314;2023-05-09T10:23:44;101085.91;;;22.16;100.00
10852;BME280;5479;52.046;6.314;2023-05-09T10:26:21;101090.53;;;21.80;100.00
10852;BME280;5479;52.046;6.314;2023-05-09T10:28:54;101095.28;;;21.33;100.00
10852;BME280;5479;52.046;6.314;2023-05-09T10:31:25;101088.34;;;20.86;100.00
10852;BME280;5479;52.046;6.314;2023-05-09T10:34:00;101086.25;;;20.43;100.00
10852;BME280;5479;52.046;6.314;2023-05-09T10:36:32;101088.56;;;20.19;100.00
10852;BME280;5479;52.046;6.314;2023-05-09T10:39:01;101079.69;;;19.99;100.00
10852;BME280;5479;52.046;6.314;2023-05-09T10:41:31;101075.56;;;20.14;100.00
10852;BME280;5479;52.046;6.314;2023-05-09T10:44:05;101069.03;;;20.63;100.00
10852;BME280;5479;52.046;6.314;2023-05-09T10:46:38;101070.13;;;20.97;100.00
10852;BME280;5479;52.046;6.314;2023-05-09T10:49:07;101072.41;;;21.20;100.00
10852;BME280;5479;52.046;6.314;2023-05-09T10:51:38;101066.50;;;21.69;100.00
10852;BME280;5479;52.046;6.314;2023-05-09T10:54:13;101058.69;;;21.84;100.00
10852;BME280;5479;52.046;6.314;2023-05-09T10:56:43;101051.13;;;22.05;100.00
10852;BME280;5479;52.046;6.314;2023-05-09T10:59:34;101058.16;;;21.98;100.00
10852;BME280;5479;52.046;6.314;2023-05-09T11:02:04;101047.88;;;21.58;100.00
10852;BME280;5479;52.046;6.314;2023-05-09T11:04:32;101046.94;;;21.49;100.00
10852;BME280;5479;52.046;6.314;2023-05-09T11:07:01;101051.16;;;21.70;100.00
10852;BME280;5479;52.046;6.314;2023-05-09T11:09:31;101051.28;;;21.86;100.00
10852;BME280;5479;52.046;6.314;2023-05-09T11:12:11;101048.16;;;21.90;100.00
10852;BME280;5479;52.046;6.314;2023-05-09T11:14:42;101048.66;;;21.50;100.00
10852;BME280;5479;52.046;6.314;2023-05-09T11:17:26;101037.00;;;21.32;100.00
10852;BME280;5479;52.046;6.314;2023-05-09T11:19:59;101037.63;;;21.44;100.00
10852;BME280;5479;52.046;6.314;2023-05-09T11:22:27;101037.19;;;21.31;100.00
10852;BME280;5479;52.046;6.314;2023-05-09T11:25:03;101038.06;;;21.04;100.00
10852;BME280;5479;52.046;6.314;2023-05-09T11:27:38;101019.31;;;21.47;100.00
10852;BME280;5479;52.046;6.314;2023-05-09T11:30:09;101027.81;;;21.96;100.00
10852;BME280;5479;52.046;6.314;2023-05-09T11:32:42;101025.13;;;21.96;100.00
10852;BME280;5479;52.046;6.314;2023-05-09T11:35:15;101015.47;;;22.19;100.00
10852;BME280;5479;52.046;6.314;2023-05-09T11:37:49;101019.06;;;22.28;100.00
10852;BME280;5479;52.046;6.314;2023-05-09T11:40:19;101022.66;;;22.36;100.00
10852;BME280;5479;52.046;6.314;2023-05-09T11:42:51;101010.31;;;22.26;100.00
10852;BME280;5479;52.046;6.314;2023-05-09T11:45:21;101014.34;;;21.96;100.00
10852;BME280;5479;52.046;6.314;2023-05-09T11:47:54;101005.34;;;21.87;100.00
10852;BME280;5479;52.046;6.314;2023-05-09T11:50:23;101001.34;;;21.74;100.00
10852;BME280;5479;52.046;6.314;2023-05-09T11:52:52;101004.16;;;21.11;100.00
10852;BME280;5479;52.046;6.314;2023-05-09T11:55:21;101002.56;;;21.18;100.00
10852;BME280;5479;52.046;6.314;2023-05-09T11:57:55;101001.16;;;21.14;100.00
10852;BME280;5479;52.046;6.314;2023-05-09T12:00:24;100994.63;;;21.34;100.00
10852;BME280;5479;52.046;6.314;2023-05-09T12:02:52;101005.59;;;21.58;100.00
10852;BME280;5479;52.046;6.314;2023-05-09T12:05:21;100995.78;;;21.14;100.00
10852;BME280;5479;52.046;6.314;2023-05-09T12:07:50;100985.91;;;21.40;100.00
10852;BME280;5479;52.046;6.314;2023-05-09T12:10:19;100993.44;;;21.54;100.00
10852;BME280;5479;52.046;6.314;2023-05-09T12:12:50;100989.53;;;21.92;100.00
10852;BME280;5479;52.046;6.314;2023-05-09T12:15:21;100990.59;;;21.82;100.00
10852;BME280;5479;52.046;6.314;2023-05-09T12:18:03;100984.16;;;21.75;100.00
10852;BME280;5479;52.046;6.314;2023-05-09T12:20:42;100976.47;;;22.05;100.00
10852;BME280;5479;52.046;6.314;2023-05-09T12:23:10;100970.47;;;21.94;100.00
10852;BME280;5479;52.046;6.314;2023-05-09T12:25:46;100977.59;;;21.51;100.00
10852;BME280;5479;52.046;6.314;2023-05-09T12:28:18;100975.38;;;21.12;100.00
10852;BME280;5479;52.046;6.314;2023-05-09T12:30:49;100975.50;;;20.75;100.00
10852;BME280;5479;52.046;6.314;2023-05-09T12:33:19;100975.00;;;21.24;100.00
10852;BME280;5479;52.046;6.314;2023-05-09T12:36:02;100973.75;;;21.36;100.00
10852;BME280;5479;52.046;6.314;2023-05-09T12:38:33;100971.56;;;20.87;100.00
10852;BME280;5479;52.046;6.314;2023-05-09T12:41:05;100975.09;;;20.70;100.00
10852;BME280;5479;52.046;6.314;2023-05-09T12:43:35;100966.66;;;21.00;100.00
10852;BME280;5479;52.046;6.314;2023-05-09T12:46:05;100967.78;;;21.07;100.00
10852;BME280;5479;52.046;6.314;2023-05-09T12:48:35;100968.78;;;20.79;100.00
10852;BME280;5479;52.046;6.314;2023-05-09T12:51:05;100970.53;;;20.53;100.00
10852;BME280;5479;52.046;6.314;2023-05-09T12:53:37;100971.66;;;20.77;100.00
10852;BME280;5479;52.046;6.314;2023-05-09T12:56:11;100961.59;;;20.97;100.00
10852;BME280;5479;52.046;6.314;2023-05-09T12:58:47;100959.13;;;20.86;100.00
10852;BME280;5479;52.046;6.314;2023-05-09T13:01:16;100963.56;;;20.95;100.00
10852;BME280;5479;52.046;6.314;2023-05-09T13:03:50;100968.78;;;20.79;100.00
10852;BME280;5479;52.046;6.314;2023-05-09T13:06:18;100959.38;;;20.48;100.00
10852;BME280;5479;52.046;6.314;2023-05-09T13:08:57;100959.44;;;20.38;100.00
10852;BME280;5479;52.046;6.314;2023-05-09T13:11:27;100964.94;;;20.36;100.00